Time;durP1;ratioP1;P1;durP2;ratioP2;P2;SDS_P1;SDS_P2;PMS_P1;PMS_P2;Temp;Humidity;BMP_temperature;BMP_pressure;BME280_temperature;BME280_humidity;BME280_pressure;Samples;Min_cycle;Max_cycle;Signal;HPM_P1;HPM_P2
2022/07/11 00:02:02;;;;;;;1.70;0.97;;;;;;;15.73;80.71;101471.97;5039465;28;20290;-84
2022/07/11 00:04:29;;;;;;;1.03;0.90;;;;;;;15.74;80.65;101472.84;5035171;28;20236;-85
2022/07/11 00:06:56;;;;;;;2.40;0.90;;;;;;;15.72;80.64;101472.94;5033421;28;20206;-85
2022/07/11 00:09:22;;;;;;;2.80;1.27;;;;;;;15.71;80.61;101468.53;5045546;28;20225;-85
2022/07/11 00:11:50;;;;;;;2.80;1.03;;;;;;;15.71;80.84;101465.84;5036578;28;20210;-85
2022/07/11 00:14:17;;;;;;;2.97;1.00;;;;;;;15.70;81.14;101466.81;5036651;28;20235;-85
2022/07/11 00:16:43;;;;;;;1.40;1.30;;;;;;;15.69;80.92;101462.41;5036467;28;20215;-86
2022/07/11 00:19:12;;;;;;;1.73;1.27;;;;;;;15.69;81.09;101459.72;5038724;28;20216;-85
2022/07/11 00:21:38;;;;;;;2.10;1.10;;;;;;;15.68;81.26;101462.53;5027183;28;20207;-85
2022/07/11 00:24:06;;;;;;;1.43;1.30;;;;;;;15.66;81.14;101462.63;5029119;28;20215;-86
2022/07/11 00:26:33;;;;;;;2.00;1.47;;;;;;;15.67;81.57;101464.34;5032239;28;20206;-85
2022/07/11 00:28:59;;;;;;;1.63;1.40;;;;;;;15.65;81.23;101454.69;5035350;28;20236;-85
2022/07/11 00:31:26;;;;;;;1.53;1.40;;;;;;;15.63;81.54;101449.41;5034689;28;20580;-85
2022/07/11 00:33:52;;;;;;;1.53;1.40;;;;;;;15.63;81.58;101449.41;5024342;28;20207;-85
2022/07/11 00:36:20;;;;;;;2.40;1.67;;;;;;;15.61;81.28;101446.84;5032191;28;20208;-85
2022/07/11 00:38:47;;;;;;;2.83;1.40;;;;;;;15.60;81.61;101447.81;5032580;28;20209;-85
2022/07/11 00:41:14;;;;;;;2.43;1.33;;;;;;;15.61;81.34;101451.34;5041599;28;20231;-84
2022/07/11 00:43:42;;;;;;;2.03;1.83;;;;;;;15.61;81.68;101446.84;5041001;28;20295;-84
2022/07/11 00:46:10;;;;;;;2.57;1.47;;;;;;;15.60;81.35;101449.63;5036060;28;20317;-84
2022/07/11 00:48:37;;;;;;;1.90;1.20;;;;;;;15.58;81.53;101454.28;5043557;28;20234;-85
2022/07/11 00:51:04;;;;;;;1.43;1.13;;;;;;;15.57;81.44;101439.16;5037316;28;20584;-86
2022/07/11 00:53:34;;;;;;;2.40;1.63;;;;;;;15.55;81.35;101447.31;5039156;28;20318;-86
2022/07/11 00:56:02;;;;;;;1.43;1.33;;;;;;;15.55;81.37;101454.47;5036768;28;20233;-85
2022/07/11 00:58:29;;;;;;;2.10;1.40;;;;;;;15.53;81.18;101457.25;5036974;28;20659;-86
2022/07/11 01:00:57;;;;;;;4.23;1.40;;;;;;;15.52;81.49;101449.31;5040987;28;20597;-85
2022/07/11 01:03:24;;;;;;;1.13;1.03;;;;;;;15.51;81.36;101444.91;5031399;28;20691;-84
2022/07/11 01:05:50;;;;;;;4.30;1.40;;;;;;;15.48;81.07;101443.28;5019802;28;20703;-87
2022/07/11 01:08:17;;;;;;;1.60;1.07;;;;;;;15.46;81.39;101441.69;5048960;28;20240;-84
2022/07/11 01:10:45;;;;;;;1.30;1.10;;;;;;;15.45;81.46;101438.13;5034351;28;20208;-85
2022/07/11 01:13:12;;;;;;;1.20;0.90;;;;;;;15.42;81.02;101432.97;5033349;28;20209;-84
2022/07/11 01:15:38;;;;;;;1.13;1.03;;;;;;;15.40;80.77;101434.94;5041617;28;20376;-84
2022/07/11 01:18:05;;;;;;;1.90;0.90;;;;;;;15.41;81.03;101433.09;5038986;28;20212;-84
2022/07/11 01:20:31;;;;;;;0.83;0.80;;;;;;;15.40;80.99;101426.03;5036493;28;20665;-84
2022/07/11 01:23:03;;;;;;;1.10;1.00;;;;;;;15.40;81.11;101428.72;5039921;28;20204;-84
2022/07/11 01:25:34;;;;;;;0.93;0.93;;;;;;;15.39;80.96;101425.16;5029537;28;20233;-84
2022/07/11 01:28:02;;;;;;;1.27;1.10;;;;;;;15.40;80.99;101423.34;5045193;28;20218;-84
2022/07/11 01:30:30;;;;;;;0.90;0.80;;;;;;;15.40;81.03;101424.22;5037427;28;20290;-84
2022/07/11 01:32:57;;;;;;;1.10;1.00;;;;;;;15.41;80.69;101419.66;5044674;28;20199;-83
2022/07/11 01:35:25;;;;;;;1.90;1.03;;;;;;;15.41;80.64;101416.97;5033507;28;20223;-84
2022/07/11 01:37:51;;;;;;;1.60;0.83;;;;;;;15.39;80.54;101413.56;5033445;28;20213;-84
2022/07/11 01:40:20;;;;;;;1.67;1.00;;;;;;;15.39;80.34;101421.63;5024730;28;20213;-84
2022/07/11 01:42:47;;;;;;;1.90;0.97;;;;;;;15.37;80.16;101415.50;5031621;28;20305;-85
2022/07/11 01:45:14;;;;;;;1.50;0.90;;;;;;;15.34;80.17;101421.09;5030959;28;20233;-85
2022/07/11 01:47:40;;;;;;;0.90;0.90;;;;;;;15.32;80.06;101417.66;5033767;28;20220;-85
2022/07/11 01:50:07;;;;;;;1.63;1.07;;;;;;;15.29;80.17;101422.25;5030393;28;20209;-85
2022/07/11 01:52:34;;;;;;;1.03;0.93;;;;;;;15.28;80.49;101419.69;5036181;28;20225;-85
2022/07/11 01:55:01;;;;;;;1.50;0.90;;;;;;;15.25;80.50;101422.59;5027349;28;20222;-84
2022/07/11 01:57:28;;;;;;;2.57;1.00;;;;;;;15.23;80.62;101422.69;5039760;28;20220;-84
2022/07/11 01:59:55;;;;;;;2.40;1.00;;;;;;;15.21;80.75;101427.34;5031661;28;20207;-85
2022/07/11 02:02:21;;;;;;;1.87;1.10;;;;;;;15.20;80.95;101428.28;5038778;28;20901;-85
2022/07/11 02:04:48;;;;;;;0.87;0.80;;;;;;;15.19;80.98;101423.91;5030869;28;20225;-85
2022/07/11 02:08:11;;;;;;;1.43;1.03;;;;;;;15.18;80.84;101422.19;5035660;28;20735;-85
2022/07/11 02:10:01;;;;;;;1.37;1.00;;;;;;;15.17;81.24;101419.59;5033502;28;20233;-83
2022/07/11 02:12:29;;;;;;;1.00;0.90;;;;;;;15.16;81.37;101424.09;5033195;28;20214;-84
2022/07/11 02:14:55;;;;;;;1.37;1.00;;;;;;;15.15;81.40;101425.06;5033728;28;20628;-85
2022/07/11 02:17:22;;;;;;;1.90;1.07;;;;;;;15.15;81.57;101427.75;5038997;28;20217;-85
2022/07/11 02:19:48;;;;;;;1.30;1.10;;;;;;;15.13;81.52;101418.94;5037083;28;20594;-85
2022/07/11 02:22:15;;;;;;;1.83;1.10;;;;;;;15.14;81.71;101419.81;5028978;28;20217;-84
2022/07/11 02:24:41;;;;;;;1.10;1.00;;;;;;;15.14;81.85;101415.31;5036194;28;20369;-84
2022/07/11 02:27:08;;;;;;;1.00;0.90;;;;;;;15.13;81.91;101410.03;5034718;28;20202;-84
2022/07/11 02:29:35;;;;;;;2.20;1.30;;;;;;;15.14;81.57;101415.31;5033704;28;20330;-84
2022/07/11 02:32:03;;;;;;;1.23;1.00;;;;;;;15.15;82.16;101426.91;5034911;28;20202;-83
2022/07/11 02:34:29;;;;;;;1.13;1.00;;;;;;;15.16;81.86;101423.25;5030745;28;20230;-84
2022/07/11 02:36:56;;;;;;;2.37;1.50;;;;;;;15.16;81.90;101426.78;5034250;28;20201;-85
2022/07/11 02:39:22;;;;;;;3.03;1.37;;;;;;;15.16;82.15;101424.09;5036487;28;20210;-84
2022/07/11 02:41:49;;;;;;;2.43;1.20;;;;;;;15.16;81.96;101429.47;5040910;28;20205;-85
2022/07/11 02:44:15;;;;;;;1.77;1.47;;;;;;;15.15;82.14;101433.13;5047213;28;20241;-84
2022/07/11 02:46:43;;;;;;;2.07;1.80;;;;;;;15.17;82.31;101430.34;5035711;28;20281;-84
2022/07/11 02:49:09;;;;;;;1.67;1.57;;;;;;;15.15;82.23;101430.44;5032766;28;20232;-84
2022/07/11 02:51:36;;;;;;;2.77;1.50;;;;;;;15.14;82.48;101428.72;5032038;28;20222;-85
2022/07/11 02:54:03;;;;;;;1.67;1.57;;;;;;;15.14;82.23;101434.09;5041260;28;20214;-84
2022/07/11 02:56:29;;;;;;;3.27;1.60;;;;;;;15.13;82.62;101431.50;5031051;28;20210;-84
2022/07/11 02:58:56;;;;;;;1.70;1.60;;;;;;;15.13;82.91;101434.19;5037644;28;20202;-85
2022/07/11 03:01:22;;;;;;;2.57;1.63;;;;;;;15.15;82.88;101432.25;5032292;28;20297;-84
2022/07/11 03:03:50;;;;;;;2.87;1.80;;;;;;;15.15;82.60;101427.75;5032349;28;20202;-83
2022/07/11 03:06:16;;;;;;;1.97;1.87;;;;;;;15.16;82.63;101437.53;5032674;28;20209;-86
2022/07/11 03:08:43;;;;;;;3.40;2.20;;;;;;;15.16;82.54;101437.53;5041353;28;20687;-84
2022/07/11 03:11:09;;;;;;;2.63;2.00;;;;;;;15.16;82.60;101432.16;5040647;28;20210;-83
2022/07/11 03:13:36;;;;;;;2.93;2.00;;;;;;;15.18;82.88;101432.91;5045379;28;20206;-82
2022/07/11 03:16:02;;;;;;;2.73;2.20;;;;;;;15.18;82.92;101435.59;5031290;28;20739;-83
2022/07/11 03:18:29;;;;;;;3.20;2.00;;;;;;;15.20;82.55;101438.16;5047569;28;20202;-83
2022/07/11 03:20:57;;;;;;;3.77;2.33;;;;;;;15.20;82.81;101441.72;5037691;28;20202;-82
2022/07/11 03:23:23;;;;;;;2.73;2.30;;;;;;;15.22;82.37;101439.78;5038588;28;20366;-84
2022/07/11 03:25:50;;;;;;;3.60;2.87;;;;;;;15.23;82.52;101444.16;5039094;28;20230;-83
2022/07/11 03:28:17;;;;;;;3.70;3.00;;;;;;;15.24;82.48;101437.81;5040603;28;20555;-83
2022/07/11 03:30:44;;;;;;;3.73;2.97;;;;;;;15.23;82.40;101438.78;5033763;28;20203;-83
2022/07/11 03:33:10;;;;;;;3.13;2.67;;;;;;;15.24;82.37;101442.34;5029433;28;20237;-83
2022/07/11 03:35:43;;;;;;;3.87;3.33;;;;;;;15.23;82.51;101435.25;5030777;28;20223;-83
2022/07/11 03:38:11;;;;;;;3.83;3.00;;;;;;;15.23;82.74;101436.09;5034267;28;20214;-83
2022/07/11 03:40:39;;;;;;;3.00;2.80;;;;;;;15.22;82.76;101434.41;5034761;28;20209;-83
2022/07/11 03:43:06;;;;;;;3.53;2.40;;;;;;;15.23;82.81;101436.09;5029830;28;20203;-82
2022/07/11 03:45:32;;;;;;;3.67;2.77;;;;;;;15.24;82.91;101432.47;5034688;28;20231;-83
2022/07/11 03:47:59;;;;;;;4.23;2.90;;;;;;;15.25;82.61;101439.53;5032142;28;20202;-83
2022/07/11 03:50:25;;;;;;;3.27;2.93;;;;;;;15.25;82.36;101431.50;5035568;28;20232;-84
2022/07/11 03:52:52;;;;;;;3.77;2.63;;;;;;;15.28;82.40;101433.09;5037754;28;20210;-83
2022/07/11 03:55:21;;;;;;;3.20;2.83;;;;;;;15.28;82.78;101436.66;5030366;28;20223;-85
2022/07/11 03:57:47;;;;;;;2.90;2.60;;;;;;;15.29;82.63;101434.81;5039310;28;20322;-83
2022/07/11 04:00:15;;;;;;;4.50;2.97;;;;;;;15.31;82.36;101423.97;5041656;28;20536;-83
2022/07/11 04:02:41;;;;;;;3.47;2.43;;;;;;;15.33;82.52;101435.47;5041447;28;20693;-83
2022/07/11 04:05:08;;;;;;;3.97;2.40;;;;;;;15.34;82.19;101429.13;5043993;28;20218;-84
2022/07/11 04:07:35;;;;;;;5.03;2.70;;;;;;;15.35;82.31;101433.53;5036163;28;20210;-83
2022/07/11 04:10:01;;;;;;;3.57;3.10;;;;;;;15.35;82.11;101428.19;5029971;28;20238;-83
2022/07/11 04:12:29;;;;;;;3.63;2.37;;;;;;;15.35;82.05;101434.41;5021311;28;20202;-84
2022/07/11 04:14:56;;;;;;;3.20;2.30;;;;;;;15.37;81.91;101426.25;5036294;28;20238;-83
2022/07/11 04:17:22;;;;;;;6.07;3.00;;;;;;;15.37;81.97;101431.63;5038313;28;20606;-83
2022/07/11 04:19:49;;;;;;;4.43;3.20;;;;;;;15.38;82.07;101433.34;5036164;28;20661;-84
2022/07/11 04:22:16;;;;;;;4.60;3.20;;;;;;;15.39;82.30;101433.22;5030900;28;20211;-83
2022/07/11 04:24:42;;;;;;;6.90;3.10;;;;;;;15.40;81.78;101434.94;5031612;28;20237;-84
2022/07/11 04:27:09;;;;;;;5.67;2.93;;;;;;;15.40;82.17;101432.25;5025352;28;20589;-84
2022/07/11 04:29:37;;;;;;;4.50;2.73;;;;;;;15.41;81.66;101427.72;5026380;28;20598;-84
2022/07/11 04:32:03;;;;;;;6.27;3.10;;;;;;;15.40;82.08;101424.22;5030511;28;20198;-84
2022/07/11 04:34:30;;;;;;;3.37;2.80;;;;;;;15.42;81.89;101427.63;5027919;28;20231;-84
2022/07/11 04:36:56;;;;;;;3.90;3.33;;;;;;;15.44;82.03;101424.81;5029027;28;20218;-84
2022/07/11 04:39:24;;;;;;;5.73;3.47;;;;;;;15.45;82.32;101422.03;5027107;28;20299;-83
2022/07/11 04:41:50;;;;;;;5.70;3.00;;;;;;;15.46;82.42;101436.31;5032507;28;20310;-84
2022/07/11 04:44:17;;;;;;;5.37;3.50;;;;;;;15.46;82.96;101437.16;5030645;28;20223;-84
2022/07/11 04:46:45;;;;;;;5.10;3.20;;;;;;;15.49;83.28;101441.47;5033937;28;20221;-84
2022/07/11 04:49:11;;;;;;;5.17;3.23;;;;;;;15.49;83.35;101438.78;5026339;28;20248;-85
2022/07/11 04:51:38;;;;;;;3.77;3.17;;;;;;;15.48;83.51;101435.25;5031902;28;20210;-84
2022/07/11 04:54:04;;;;;;;4.60;3.43;;;;;;;15.48;83.52;101437.06;5029795;28;20211;-84
2022/07/11 04:56:31;;;;;;;7.13;3.83;;;;;;;15.45;83.68;101440.81;5027091;28;20708;-84
2022/07/11 04:58:57;;;;;;;5.73;3.50;;;;;;;15.45;83.97;101440.81;5026969;28;20216;-84
2022/07/11 05:01:24;;;;;;;5.43;3.87;;;;;;;15.44;84.17;101440.94;5030192;28;20207;-84
2022/07/11 05:03:52;;;;;;;4.53;3.63;;;;;;;15.43;84.63;101445.44;5022603;28;20229;-84
2022/07/11 05:06:18;;;;;;;7.50;4.10;;;;;;;15.41;84.71;101452.75;5022328;28;20215;-84
2022/07/11 05:08:45;;;;;;;5.20;3.83;;;;;;;15.40;84.93;101452.88;5029778;28;20212;-84
2022/07/11 05:11:12;;;;;;;5.07;4.00;;;;;;;15.39;85.00;101451.16;5024515;28;20293;-85
2022/07/11 05:13:38;;;;;;;5.63;3.83;;;;;;;15.40;85.54;101448.38;5021443;28;20203;-84
2022/07/11 05:16:06;;;;;;;6.23;4.40;;;;;;;15.42;85.39;101456.28;5019022;28;20222;-85
2022/07/11 05:18:33;;;;;;;6.50;4.27;;;;;;;15.41;85.52;101459.94;5024849;28;20211;-84
2022/07/11 05:21:01;;;;;;;6.10;3.90;;;;;;;15.40;85.88;101453.72;5024591;28;20201;-84
2022/07/11 05:23:27;;;;;;;7.50;3.80;;;;;;;15.41;86.01;101450.06;5024861;28;20658;-85
2022/07/11 05:25:54;;;;;;;5.57;4.10;;;;;;;15.42;86.29;101459.81;5023979;28;20238;-85
2022/07/11 05:28:20;;;;;;;6.57;3.93;;;;;;;15.44;85.92;101459.72;5021851;28;20207;-83
2022/07/11 05:30:47;;;;;;;7.73;4.33;;;;;;;15.45;86.38;101450.69;5027591;28;20692;-85
2022/07/11 05:33:13;;;;;;;6.00;4.57;;;;;;;15.45;86.31;101462.28;5028823;28;20818;-83
2022/07/11 05:35:40;;;;;;;5.10;4.10;;;;;;;15.46;86.19;101464.00;5034778;28;20227;-83
2022/07/11 05:38:08;;;;;;;6.50;3.60;;;;;;;15.49;86.70;101458.44;5032647;28;20202;-84
2022/07/11 05:40:34;;;;;;;4.43;3.80;;;;;;;15.50;86.30;101462.84;5039067;28;20945;-84
2022/07/11 05:43:01;;;;;;;4.80;3.50;;;;;;;15.51;86.06;101472.63;5032770;28;20198;-84
2022/07/11 05:45:28;;;;;;;7.27;3.80;;;;;;;15.53;86.07;101469.81;5036770;28;20223;-84
2022/07/11 05:47:54;;;;;;;7.00;4.10;;;;;;;15.54;86.18;101463.47;5038598;28;20208;-84
2022/07/11 05:50:21;;;;;;;5.13;3.73;;;;;;;15.57;86.15;101479.41;5029754;28;20232;-84
2022/07/11 05:52:47;;;;;;;6.90;3.73;;;;;;;15.58;85.91;101476.63;5033354;28;20700;-83
2022/07/11 05:55:15;;;;;;;6.43;3.70;;;;;;;15.60;85.99;101473.81;5036925;28;20226;-84
2022/07/11 05:57:42;;;;;;;7.23;4.00;;;;;;;15.61;86.12;101472.84;5037074;28;20210;-83
2022/07/11 06:00:09;;;;;;;4.57;3.87;;;;;;;15.61;86.03;101479.06;5030517;28;20212;-83
2022/07/11 06:02:36;;;;;;;4.47;3.63;;;;;;;15.63;86.27;101479.81;5037546;28;20202;-83
2022/07/11 06:05:03;;;;;;;4.87;3.63;;;;;;;15.66;86.44;101475.19;5039442;28;20707;-83
2022/07/11 06:10:13;;;;;;;4.73;3.67;;;;;;;15.65;86.55;101468.97;5025333;28;20221;-83
2022/07/11 06:12:41;;;;;;;6.70;3.60;;;;;;;15.66;86.36;101470.69;5031848;28;20213;-83
2022/07/11 06:15:08;;;;;;;4.27;3.87;;;;;;;15.69;86.35;101475.00;5043098;28;20221;-83
2022/07/11 06:17:35;;;;;;;5.13;3.60;;;;;;;15.71;86.83;101475.75;5039316;28;20210;-83
2022/07/11 06:20:01;;;;;;;4.17;3.43;;;;;;;15.74;86.78;101468.31;5040417;28;20614;-83
2022/07/11 06:22:28;;;;;;;5.33;3.87;;;;;;;15.74;86.37;101473.69;5034797;28;20203;-84
2022/07/11 06:24:55;;;;;;;5.17;3.90;;;;;;;15.76;86.30;101468.22;5043703;28;20226;-84
2022/07/11 06:27:21;;;;;;;4.50;3.60;;;;;;;15.80;86.41;101473.22;5032811;28;20212;-83
2022/07/11 06:29:49;;;;;;;5.07;3.47;;;;;;;15.82;86.19;101463.25;5039305;28;20228;-84
2022/07/11 06:32:15;;;;;;;5.53;3.43;;;;;;;15.86;85.82;101475.50;5026903;28;20207;-83
2022/07/11 06:34:42;;;;;;;4.53;2.93;;;;;;;15.89;85.90;101469.91;5040489;28;20578;-83
2022/07/11 06:37:09;;;;;;;3.80;2.63;;;;;;;15.97;85.96;101478.25;5031042;28;20211;-84
2022/07/11 06:39:35;;;;;;;4.97;2.80;;;;;;;16.10;85.76;101469.31;5037937;28;20204;-84
2022/07/11 06:42:02;;;;;;;2.93;2.63;;;;;;;16.25;85.38;101470.84;5035960;28;20204;-84
2022/07/11 06:44:28;;;;;;;5.27;2.30;;;;;;;16.41;84.75;101474.13;5031328;28;20222;-83
2022/07/11 06:46:57;;;;;;;2.87;2.07;;;;;;;16.62;84.64;101471.66;5036491;28;20203;-84
2022/07/11 06:49:24;;;;;;;4.80;2.00;;;;;;;16.84;83.83;101470.91;5036034;28;20212;-83
2022/07/11 06:51:51;;;;;;;2.37;1.50;;;;;;;17.03;82.47;101468.50;5042810;28;20215;-83
2022/07/11 06:54:17;;;;;;;2.17;1.67;;;;;;;17.14;80.64;101471.22;5037408;28;20285;-84
2022/07/11 06:56:44;;;;;;;1.70;1.33;;;;;;;17.24;79.34;101474.91;5036966;28;20296;-83
2022/07/11 06:59:10;;;;;;;3.93;1.70;;;;;;;17.33;78.07;101465.25;5039401;28;20205;-83
2022/07/11 07:01:37;;;;;;;3.03;1.30;;;;;;;17.42;76.80;101471.75;5040701;28;20205;-82
2022/07/11 07:04:05;;;;;;;3.00;1.43;;;;;;;17.47;75.55;101465.03;5030019;28;20218;-83
2022/07/11 07:06:32;;;;;;;1.67;1.40;;;;;;;17.50;74.63;101463.94;5040685;28;20274;-83
2022/07/11 07:08:58;;;;;;;2.03;1.20;;;;;;;17.52;73.71;101467.38;5040024;28;20215;-83
2022/07/11 07:11:25;;;;;;;1.87;1.10;;;;;;;17.56;73.35;101463.41;5030708;28;20317;-83
2022/07/11 07:13:51;;;;;;;1.93;1.10;;;;;;;17.62;72.97;101471.88;5043796;28;20226;-84
2022/07/11 07:16:18;;;;;;;2.70;1.20;;;;;;;17.67;71.87;101468.88;5040393;28;20233;-84
2022/07/11 07:18:45;;;;;;;2.67;0.97;;;;;;;17.65;70.30;101463.59;5034624;28;20587;-83
2022/07/11 07:21:13;;;;;;;4.67;0.93;;;;;;;17.64;69.30;101478.03;5040248;28;20203;-83
2022/07/11 07:23:40;;;;;;;5.20;1.43;;;;;;;17.64;68.61;101474.50;5040114;28;20216;-84
2022/07/11 07:26:07;;;;;;;1.57;0.70;;;;;;;17.65;68.08;101473.50;5042289;28;20869;-83
2022/07/11 07:28:33;;;;;;;2.33;0.80;;;;;;;17.67;68.02;101468.88;5043588;28;20221;-83
2022/07/11 07:31:00;;;;;;;3.40;1.27;;;;;;;17.72;67.74;101481.97;5043379;28;20261;-82
2022/07/11 07:33:26;;;;;;;2.23;0.83;;;;;;;17.76;67.65;101475.34;5043855;28;20228;-83
2022/07/11 07:35:53;;;;;;;0.87;0.50;;;;;;;17.80;67.26;101485.75;5040817;28;20222;-83
2022/07/11 07:38:20;;;;;;;1.27;0.93;;;;;;;17.83;67.08;101477.41;5035857;28;20249;-83
2022/07/11 07:40:47;;;;;;;1.90;0.77;;;;;;;17.90;67.36;101486.75;5029971;28;20211;-82
2022/07/11 07:43:13;;;;;;;1.73;1.00;;;;;;;18.00;67.27;101476.06;5034104;28;20218;-82
2022/07/11 07:45:40;;;;;;;1.53;0.77;;;;;;;18.09;67.04;101479.84;5029625;28;20231;-83
2022/07/11 07:48:06;;;;;;;2.60;0.97;;;;;;;18.16;66.85;101478.34;5035140;28;20579;-83
2022/07/11 07:50:33;;;;;;;1.83;0.80;;;;;;;18.20;65.99;101477.97;5046790;28;20234;-83
2022/07/11 07:52:59;;;;;;;0.90;0.83;;;;;;;18.21;65.56;101477.00;5036929;28;20220;-82
2022/07/11 07:55:27;;;;;;;3.20;0.80;;;;;;;18.25;65.68;101485.69;5047939;28;20241;-82
2022/07/11 07:57:54;;;;;;;3.00;0.73;;;;;;;18.25;65.76;101483.00;5037437;28;20214;-83
2022/07/11 08:03:06;;;;;;;2.57;0.80;;;;;;;18.28;65.99;101488.13;5042031;28;20214;-82
2022/07/11 08:05:33;;;;;;;1.60;0.70;;;;;;;18.29;66.04;101482.59;5043235;28;20229;-82
2022/07/11 08:08:00;;;;;;;3.03;0.87;;;;;;;18.32;66.11;101487.75;5036730;28;20221;-82
2022/07/11 08:10:28;;;;;;;1.80;0.60;;;;;;;18.36;66.06;101486.50;5037664;28;20235;-82
2022/07/11 08:12:54;;;;;;;1.37;0.87;;;;;;;18.40;65.85;101492.53;5044050;28;20300;-83
2022/07/11 08:15:21;;;;;;;1.67;0.97;;;;;;;18.40;65.53;101495.22;5043427;28;20248;-83
2022/07/11 08:17:48;;;;;;;1.63;1.03;;;;;;;18.39;65.49;101496.19;5040391;28;20694;-81
2022/07/11 08:20:14;;;;;;;2.37;1.20;;;;;;;18.37;65.35;101506.25;5038014;28;20209;-82
2022/07/11 08:22:41;;;;;;;2.57;1.20;;;;;;;18.35;65.42;101502.81;5043705;28;20299;-83
2022/07/11 08:25:08;;;;;;;1.90;1.37;;;;;;;18.31;65.51;101509.44;5048134;28;20224;-82
2022/07/11 08:27:37;;;;;;;3.13;1.20;;;;;;;18.31;65.46;101504.91;5031837;28;20207;-82
2022/07/11 08:30:05;;;;;;;2.57;1.30;;;;;;;18.29;65.39;101506.88;5036311;28;20203;-83
2022/07/11 08:32:32;;;;;;;3.53;1.40;;;;;;;18.28;65.51;101512.38;5032363;28;20318;-82
2022/07/11 08:34:58;;;;;;;1.20;1.07;;;;;;;18.25;65.36;101508.13;5036585;28;20244;-82
2022/07/11 08:37:25;;;;;;;2.27;1.20;;;;;;;18.24;65.15;101506.41;5032159;28;20239;-82
2022/07/11 08:39:51;;;;;;;2.00;1.00;;;;;;;18.24;65.18;101510.94;5031386;28;20310;-82
2022/07/11 08:42:20;;;;;;;2.30;1.27;;;;;;;18.26;65.19;101514.38;5039379;28;20576;-82
2022/07/11 08:44:48;;;;;;;2.73;1.50;;;;;;;18.28;64.98;101512.38;5036772;28;20227;-82
2022/07/11 08:47:15;;;;;;;2.73;1.60;;;;;;;18.29;64.97;101509.56;5033789;28;20228;-82
2022/07/11 08:49:43;;;;;;;3.50;2.00;;;;;;;18.32;65.01;101512.00;5034045;28;20207;-81
2022/07/11 08:52:11;;;;;;;1.40;1.30;;;;;;;18.34;65.01;101510.06;5039088;28;20233;-82
2022/07/11 08:54:38;;;;;;;1.53;0.93;;;;;;;18.37;64.85;101509.81;5042525;28;20225;-83
2022/07/11 08:57:06;;;;;;;1.47;1.20;;;;;;;18.38;64.56;101513.38;5045480;28;20619;-82
2022/07/11 08:59:35;;;;;;;2.63;1.27;;;;;;;18.39;64.68;101512.38;5033664;28;20573;-82
2022/07/11 09:02:05;;;;;;;1.83;1.17;;;;;;;18.43;64.63;101516.53;5034078;28;20236;-83
2022/07/11 09:04:32;;;;;;;1.40;0.87;;;;;;;18.47;64.47;101512.59;5022164;28;20239;-83
2022/07/11 09:07:00;;;;;;;2.10;1.20;;;;;;;18.53;64.82;101514.78;5020674;28;20263;-83
2022/07/11 09:09:27;;;;;;;1.77;0.97;;;;;;;18.59;64.79;101514.31;5033267;28;20212;-82
2022/07/11 09:11:55;;;;;;;1.53;0.90;;;;;;;18.65;64.76;101516.47;5030986;28;20596;-83
2022/07/11 09:14:24;;;;;;;1.03;0.93;;;;;;;18.70;64.80;101511.56;5030049;28;20288;-82
2022/07/11 09:16:58;;;;;;;2.83;1.03;;;;;;;18.76;64.61;101512.03;5031293;28;20337;-82
2022/07/11 09:19:28;;;;;;;1.60;0.80;;;;;;;18.80;64.43;101510.81;5028762;28;20215;-82
2022/07/11 09:27:44;;;;;;;1.57;0.87;;;;;;;18.91;64.04;101502.66;5038683;28;20207;-82
2022/07/11 09:30:19;;;;;;;1.47;0.93;;;;;;;18.96;63.88;101503.97;5025092;28;20288;-82
2022/07/11 09:32:56;;;;;;;3.00;0.93;;;;;;;19.02;63.48;101499.88;5034570;28;20219;-83
2022/07/11 09:35:26;;;;;;;1.30;1.10;;;;;;;19.08;63.24;101499.38;5036708;28;20243;-83
2022/07/11 09:37:53;;;;;;;1.97;1.10;;;;;;;19.13;63.17;101502.53;5038032;28;20235;-82
2022/07/11 09:40:21;;;;;;;2.20;1.00;;;;;;;19.19;63.19;101496.59;5039633;28;20698;-82
2022/07/11 09:42:54;;;;;;;2.50;0.70;;;;;;;19.25;62.62;101504.19;5041311;28;20207;-82
2022/07/11 09:45:21;;;;;;;0.50;0.50;;;;;;;19.28;61.93;101498.50;5030502;28;20247;-81
2022/07/11 09:47:49;;;;;;;1.80;1.03;;;;;;;19.31;61.74;101509.06;5040208;28;20660;-82
2022/07/11 09:50:19;;;;;;;1.57;0.90;;;;;;;19.34;61.40;101505.25;5041217;28;20219;-82
2022/07/11 09:53:01;;;;;;;2.17;0.70;;;;;;;19.40;61.30;101508.25;5035904;28;20214;-82
2022/07/11 09:55:29;;;;;;;1.67;0.70;;;;;;;19.45;61.00;101509.69;5036154;28;20230;-82
2022/07/11 09:57:56;;;;;;;1.47;0.87;;;;;;;19.49;60.83;101503.03;5032135;28;20600;-82
2022/07/11 10:00:22;;;;;;;0.63;0.63;;;;;;;19.52;60.38;101502.81;5042004;28;20210;-82
2022/07/11 10:02:49;;;;;;;0.77;0.60;;;;;;;19.54;60.50;101503.50;5031167;28;20686;-82
2022/07/11 10:05:16;;;;;;;2.87;0.50;;;;;;;19.55;60.38;101508.78;5030602;28;20235;-82
2022/07/11 10:07:42;;;;;;;1.10;0.60;;;;;;;19.57;59.99;101501.41;5032844;28;20232;-82
2022/07/11 10:10:11;;;;;;;0.87;0.37;;;;;;;19.60;60.34;101495.72;5032525;28;20669;-82
2022/07/11 10:12:37;;;;;;;1.40;0.60;;;;;;;19.64;60.52;101501.72;5024992;28;20254;-82
2022/07/11 10:15:06;;;;;;;0.30;0.30;;;;;;;19.66;60.36;101500.59;5044481;28;20228;-82
2022/07/11 10:17:44;;;;;;;0.47;0.30;;;;;;;19.67;59.99;101512.28;5034290;28;20233;-81
2022/07/11 10:20:19;;;;;;;0.60;0.50;;;;;;;19.67;60.13;101501.47;5039948;28;20244;-82
2022/07/11 10:22:54;;;;;;;0.97;0.50;;;;;;;19.68;60.32;101497.78;5033465;28;20207;-82
2022/07/11 10:25:31;;;;;;;0.50;0.30;;;;;;;19.69;60.23;101499.50;5031062;28;20238;-82
2022/07/11 10:28:09;;;;;;;0.70;0.20;;;;;;;19.71;60.23;101502.88;5044189;28;20206;-82
2022/07/11 10:30:47;;;;;;;1.03;0.40;;;;;;;19.77;60.40;101505.06;5034604;28;20207;-82
2022/07/11 10:33:14;;;;;;;1.23;0.63;;;;;;;19.82;60.00;101494.69;5041201;28;20213;-82
2022/07/11 10:35:43;;;;;;;2.37;0.47;;;;;;;19.91;60.46;101504.69;5037734;28;20283;-82
2022/07/11 10:38:09;;;;;;;0.33;0.33;;;;;;;19.99;59.94;101502.16;5035547;28;20869;-82
2022/07/11 10:40:46;;;;;;;0.60;0.30;;;;;;;20.05;60.18;101496.22;5034999;28;20214;-83
2022/07/11 10:43:13;;;;;;;1.30;0.30;;;;;;;20.11;59.73;101489.38;5036374;28;20214;-83
2022/07/11 10:46:04;;;;;;;0.53;0.40;;;;;;;20.21;59.79;101492.97;5032423;28;20278;-82
2022/07/11 10:48:33;;;;;;;3.20;0.50;;;;;;;20.33;59.70;101504.53;5021690;28;20205;-83
2022/07/11 10:51:11;;;;;;;0.73;0.50;;;;;;;20.42;58.91;101498.31;5027420;28;20234;-83
2022/07/11 10:53:47;;;;;;;0.70;0.40;;;;;;;20.48;58.57;101497.75;5046817;28;20636;-83
2022/07/11 10:56:35;;;;;;;0.50;0.30;;;;;;;20.55;58.45;101493.47;5036466;28;20233;-82
2022/07/11 10:59:11;;;;;;;1.43;0.40;;;;;;;20.62;58.48;101494.59;5030951;28;20224;-83
2022/07/11 11:02:03;;;;;;;0.40;0.30;;;;;;;20.70;57.82;101493.91;5027789;28;20200;-82
2022/07/11 11:04:46;;;;;;;1.17;0.50;;;;;;;20.74;57.61;101498.91;5024147;28;20974;-82
2022/07/11 11:07:30;;;;;;;0.60;0.40;;;;;;;20.86;57.42;101494.19;5026371;28;20729;-82
2022/07/11 11:09:57;;;;;;;1.90;0.40;;;;;;;20.95;57.19;101500.63;5024324;28;20211;-82
2022/07/11 11:12:58;;;;;;;1.17;0.40;;;;;;;21.01;57.00;101495.47;5026689;28;20252;-83
2022/07/11 11:15:44;;;;;;;0.43;0.40;;;;;;;21.04;56.64;101500.59;5023224;28;20226;-82
2022/07/11 11:18:36;;;;;;;0.55;0.40;;;;;;;21.06;56.44;101497.75;5021692;28;20202;-82
2022/07/11 11:21:24;;;;;;;0.88;0.68;;;;;;;21.05;56.09;101501.44;5023554;28;20208;-81
2022/07/11 11:24:10;;;;;;;0.88;0.50;;;;;;;21.05;56.29;101499.59;5028369;28;20797;-82
2022/07/11 11:26:46;;;;;;;0.77;0.30;;;;;;;21.05;56.32;101502.31;5018410;28;20207;-82
2022/07/11 11:29:19;;;;;;;0.88;0.30;;;;;;;21.07;56.63;101499.47;5018882;28;20840;-82
2022/07/11 11:31:52;;;;;;;0.50;0.30;;;;;;;21.11;57.02;101495.47;5017621;28;20230;-82
2022/07/11 11:34:18;;;;;;;1.10;0.40;;;;;;;21.19;57.12;101498.28;5022744;28;20234;-82
2022/07/11 11:36:45;;;;;;;1.25;0.30;;;;;;;21.25;56.92;101499.59;5021862;28;20206;-82
2022/07/11 11:39:21;;;;;;;0.32;0.30;;;;;;;21.26;56.50;101504.03;5028995;28;20828;-82
2022/07/11 11:41:48;;;;;;;0.93;0.30;;;;;;;21.23;56.22;101507.88;5021261;28;20194;-82